sensor_id;sensor_type;location;lat;lon;timestamp;P1;durP1;ratioP1;P2;durP2;ratioP2
70010;SDS011;59543;37.950;-122.338;2022-08-11T00:02:32;10.27;;;2.28;;
70010;SDS011;59543;37.950;-122.338;2022-08-11T00:05:05;10.43;;;2.15;;
70010;SDS011;59543;37.950;-122.338;2022-08-11T00:07:47;9.95;;;2.33;;
70010;SDS011;59543;37.950;-122.338;2022-08-11T00:10:17;11.35;;;2.33;;
70010;SDS011;59543;37.950;-122.338;2022-08-11T00:15:24;6.72;;;2.10;;
70010;SDS011;59543;37.950;-122.338;2022-08-11T00:17:55;10.77;;;2.00;;
70010;SDS011;59543;37.950;-122.338;2022-08-11T00:20:28;7.22;;;2.13;;
70010;SDS011;59543;37.950;-122.338;2022-08-11T00:23:06;5.93;;;1.77;;
70010;SDS011;59543;37.950;-122.338;2022-08-11T00:25:40;4.82;;;1.48;;
70010;SDS011;59543;37.950;-122.338;2022-08-11T00:30:48;12.27;;;2.42;;
70010;SDS011;59543;37.950;-122.338;2022-08-11T00:33:17;8.60;;;2.10;;
70010;SDS011;59543;37.950;-122.338;2022-08-11T00:35:47;11.05;;;2.20;;
70010;SDS011;59543;37.950;-122.338;2022-08-11T00:38:15;10.52;;;2.10;;
70010;SDS011;59543;37.950;-122.338;2022-08-11T00:40:54;13.15;;;2.20;;
70010;SDS011;59543;37.950;-122.338;2022-08-11T00:48:58;12.50;;;2.17;;
70010;SDS011;59543;37.950;-122.338;2022-08-11T00:51:54;9.25;;;2.17;;
70010;SDS011;59543;37.950;-122.338;2022-08-11T01:00:24;7.28;;;2.40;;
70010;SDS011;59543;37.950;-122.338;2022-08-11T01:12:13;10.38;;;2.08;;
70010;SDS011;59543;37.950;-122.338;2022-08-11T01:21:18;8.13;;;1.92;;
70010;SDS011;59543;37.950;-122.338;2022-08-11T01:41:48;5.53;;;1.58;;
70010;SDS011;59543;37.950;-122.338;2022-08-11T01:55:33;11.25;;;1.58;;
70010;SDS011;59543;37.950;-122.338;2022-08-11T01:58:40;4.55;;;1.17;;
70010;SDS011;59543;37.950;-122.338;2022-08-11T02:20:23;4.38;;;1.23;;
70010;SDS011;59543;37.950;-122.338;2022-08-11T02:28:59;4.20;;;1.10;;
70010;SDS011;59543;37.950;-122.338;2022-08-11T02:48:11;8.90;;;1.15;;
70010;SDS011;59543;37.950;-122.338;2022-08-11T02:51:28;4.65;;;1.20;;
70010;SDS011;59543;37.950;-122.338;2022-08-11T02:56:49;5.93;;;1.20;;
70010;SDS011;59543;37.950;-122.338;2022-08-11T03:17:31;6.88;;;1.20;;
70010;SDS011;59543;37.950;-122.338;2022-08-11T03:22:56;4.97;;;1.20;;
70010;SDS011;59543;37.950;-122.338;2022-08-11T03:25:28;3.58;;;1.00;;
70010;SDS011;59543;37.950;-122.338;2022-08-11T03:33:43;5.80;;;1.10;;
70010;SDS011;59543;37.950;-122.338;2022-08-11T03:39:32;4.63;;;1.10;;
70010;SDS011;59543;37.950;-122.338;2022-08-11T03:47:44;5.63;;;1.10;;
70010;SDS011;59543;37.950;-122.338;2022-08-11T04:09:56;3.45;;;0.90;;
70010;SDS011;59543;37.950;-122.338;2022-08-11T04:46:24;4.60;;;1.25;;
70010;SDS011;59543;37.950;-122.338;2022-08-11T04:51:54;5.82;;;1.33;;
70010;SDS011;59543;37.950;-122.338;2022-08-11T04:58:11;4.00;;;1.17;;
70010;SDS011;59543;37.950;-122.338;2022-08-11T05:13:28;5.53;;;1.50;;
70010;SDS011;59543;37.950;-122.338;2022-08-11T05:16:18;7.50;;;1.50;;
70010;SDS011;59543;37.950;-122.338;2022-08-11T05:19:07;5.38;;;1.33;;
70010;SDS011;59543;37.950;-122.338;2022-08-11T05:22:07;5.63;;;1.27;;
70010;SDS011;59543;37.950;-122.338;2022-08-11T05:25:10;4.65;;;1.30;;
70010;SDS011;59543;37.950;-122.338;2022-08-11T05:30:59;6.55;;;1.23;;
70010;SDS011;59543;37.950;-122.338;2022-08-11T05:33:55;6.25;;;1.25;;
70010;SDS011;59543;37.950;-122.338;2022-08-11T05:39:20;5.65;;;1.05;;
70010;SDS011;59543;37.950;-122.338;2022-08-11T05:42:08;7.03;;;1.20;;
70010;SDS011;59543;37.950;-122.338;2022-08-11T05:44:54;4.17;;;1.17;;
70010;SDS011;59543;37.950;-122.338;2022-08-11T05:47:47;6.72;;;1.25;;
70010;SDS011;59543;37.950;-122.338;2022-08-11T05:50:32;5.20;;;1.17;;
70010;SDS011;59543;37.950;-122.338;2022-08-11T05:53:18;5.70;;;1.15;;
70010;SDS011;59543;37.950;-122.338;2022-08-11T05:56:06;4.63;;;1.10;;
70010;SDS011;59543;37.950;-122.338;2022-08-11T05:58:46;4.03;;;0.90;;
70010;SDS011;59543;37.950;-122.338;2022-08-11T06:01:30;4.25;;;0.93;;
70010;SDS011;59543;37.950;-122.338;2022-08-11T06:03:59;4.15;;;1.10;;
70010;SDS011;59543;37.950;-122.338;2022-08-11T06:10:00;4.45;;;0.98;;
70010;SDS011;59543;37.950;-122.338;2022-08-11T06:12:24;5.65;;;1.38;;
70010;SDS011;59543;37.950;-122.338;2022-08-11T06:14:57;5.35;;;1.13;;
70010;SDS011;59543;37.950;-122.338;2022-08-11T06:17:28;5.60;;;1.17;;
70010;SDS011;59543;37.950;-122.338;2022-08-11T06:19:59;4.75;;;1.42;;
70010;SDS011;59543;37.950;-122.338;2022-08-11T06:22:31;5.95;;;1.40;;
70010;SDS011;59543;37.950;-122.338;2022-08-11T06:24:58;8.93;;;1.67;;
70010;SDS011;59543;37.950;-122.338;2022-08-11T06:27:27;7.72;;;1.77;;
70010;SDS011;59543;37.950;-122.338;2022-08-11T06:29:56;6.60;;;1.60;;
70010;SDS011;59543;37.950;-122.338;2022-08-11T06:32:24;8.90;;;2.28;;
70010;SDS011;59543;37.950;-122.338;2022-08-11T06:35:12;8.80;;;1.88;;
70010;SDS011;59543;37.950;-122.338;2022-08-11T06:43:18;11.75;;;2.38;;
70010;SDS011;59543;37.950;-122.338;2022-08-11T06:46:09;7.75;;;2.08;;
70010;SDS011;59543;37.950;-122.338;2022-08-11T06:48:42;8.02;;;2.00;;
70010;SDS011;59543;37.950;-122.338;2022-08-11T06:51:09;6.00;;;2.05;;
70010;SDS011;59543;37.950;-122.338;2022-08-11T06:56:29;7.15;;;2.05;;
70010;SDS011;59543;37.950;-122.338;2022-08-11T06:59:21;8.77;;;2.03;;
70010;SDS011;59543;37.950;-122.338;2022-08-11T07:04:44;10.07;;;2.20;;
70010;SDS011;59543;37.950;-122.338;2022-08-11T07:07:56;8.52;;;2.17;;
70010;SDS011;59543;37.950;-122.338;2022-08-11T07:14:01;7.38;;;2.05;;
70010;SDS011;59543;37.950;-122.338;2022-08-11T07:16:47;7.95;;;2.05;;
70010;SDS011;59543;37.950;-122.338;2022-08-11T07:19:23;8.98;;;2.20;;
70010;SDS011;59543;37.950;-122.338;2022-08-11T07:22:10;8.93;;;2.20;;
70010;SDS011;59543;37.950;-122.338;2022-08-11T07:28:17;7.10;;;2.00;;
70010;SDS011;59543;37.950;-122.338;2022-08-11T07:31:05;9.77;;;1.70;;
70010;SDS011;59543;37.950;-122.338;2022-08-11T07:36:50;9.35;;;2.60;;
70010;SDS011;59543;37.950;-122.338;2022-08-11T07:39:20;10.93;;;2.30;;
70010;SDS011;59543;37.950;-122.338;2022-08-11T07:41:48;8.48;;;2.20;;
70010;SDS011;59543;37.950;-122.338;2022-08-11T07:44:16;11.02;;;2.30;;
70010;SDS011;59543;37.950;-122.338;2022-08-11T07:46:44;6.20;;;1.98;;
70010;SDS011;59543;37.950;-122.338;2022-08-11T07:49:31;13.98;;;2.67;;
70010;SDS011;59543;37.950;-122.338;2022-08-11T07:52:20;9.82;;;2.25;;
70010;SDS011;59543;37.950;-122.338;2022-08-11T07:55:05;9.35;;;2.35;;
70010;SDS011;59543;37.950;-122.338;2022-08-11T07:57:44;9.93;;;2.17;;
70010;SDS011;59543;37.950;-122.338;2022-08-11T08:00:37;10.20;;;2.10;;
70010;SDS011;59543;37.950;-122.338;2022-08-11T08:03:25;13.63;;;2.30;;
70010;SDS011;59543;37.950;-122.338;2022-08-11T08:06:12;11.07;;;2.28;;
70010;SDS011;59543;37.950;-122.338;2022-08-11T08:08:57;8.13;;;2.40;;
70010;SDS011;59543;37.950;-122.338;2022-08-11T08:11:42;11.90;;;2.38;;
70010;SDS011;59543;37.950;-122.338;2022-08-11T08:14:29;7.38;;;1.98;;
70010;SDS011;59543;37.950;-122.338;2022-08-11T08:17:14;10.07;;;2.35;;
70010;SDS011;59543;37.950;-122.338;2022-08-11T08:19:59;6.85;;;2.03;;
70010;SDS011;59543;37.950;-122.338;2022-08-11T08:22:25;11.90;;;2.20;;
70010;SDS011;59543;37.950;-122.338;2022-08-11T08:24:52;11.02;;;2.60;;
70010;SDS011;59543;37.950;-122.338;2022-08-11T08:27:20;11.20;;;2.65;;
70010;SDS011;59543;37.950;-122.338;2022-08-11T08:29:49;8.50;;;2.42;;
70010;SDS011;59543;37.950;-122.338;2022-08-11T08:32:37;12.32;;;2.60;;
70010;SDS011;59543;37.950;-122.338;2022-08-11T08:35:06;16.55;;;2.72;;
70010;SDS011;59543;37.950;-122.338;2022-08-11T08:37:34;12.57;;;2.80;;
70010;SDS011;59543;37.950;-122.338;2022-08-11T08:40:02;13.70;;;2.65;;
70010;SDS011;59543;37.950;-122.338;2022-08-11T08:42:31;13.48;;;2.65;;
70010;SDS011;59543;37.950;-122.338;2022-08-11T08:45:08;12.10;;;2.97;;
70010;SDS011;59543;37.950;-122.338;2022-08-11T08:47:40;13.63;;;2.92;;
70010;SDS011;59543;37.950;-122.338;2022-08-11T08:50:11;12.60;;;2.80;;
70010;SDS011;59543;37.950;-122.338;2022-08-11T08:52:57;13.13;;;2.78;;
70010;SDS011;59543;37.950;-122.338;2022-08-11T08:55:29;11.40;;;2.58;;
70010;SDS011;59543;37.950;-122.338;2022-08-11T08:57:57;11.13;;;2.55;;
70010;SDS011;59543;37.950;-122.338;2022-08-11T09:00:26;14.35;;;2.95;;
70010;SDS011;59543;37.950;-122.338;2022-08-11T09:03:04;9.27;;;2.83;;
70010;SDS011;59543;37.950;-122.338;2022-08-11T09:05:30;11.27;;;2.90;;
70010;SDS011;59543;37.950;-122.338;2022-08-11T09:07:57;16.50;;;2.72;;
70010;SDS011;59543;37.950;-122.338;2022-08-11T09:10:23;13.23;;;2.88;;
70010;SDS011;59543;37.950;-122.338;2022-08-11T09:12:50;9.95;;;2.72;;
70010;SDS011;59543;37.950;-122.338;2022-08-11T09:15:17;10.85;;;2.78;;
70010;SDS011;59543;37.950;-122.338;2022-08-11T09:17:45;11.73;;;2.95;;
70010;SDS011;59543;37.950;-122.338;2022-08-11T09:20:12;8.75;;;2.67;;
70010;SDS011;59543;37.950;-122.338;2022-08-11T09:22:44;9.68;;;2.90;;
70010;SDS011;59543;37.950;-122.338;2022-08-11T09:25:30;9.90;;;2.75;;
70010;SDS011;59543;37.950;-122.338;2022-08-11T09:28:17;13.60;;;3.00;;
70010;SDS011;59543;37.950;-122.338;2022-08-11T09:30:47;12.93;;;3.15;;
70010;SDS011;59543;37.950;-122.338;2022-08-11T09:33:19;13.27;;;2.75;;
70010;SDS011;59543;37.950;-122.338;2022-08-11T09:35:48;14.43;;;3.10;;
70010;SDS011;59543;37.950;-122.338;2022-08-11T09:38:17;10.25;;;2.60;;
70010;SDS011;59543;37.950;-122.338;2022-08-11T09:41:03;14.27;;;2.75;;
70010;SDS011;59543;37.950;-122.338;2022-08-11T09:43:34;12.00;;;2.95;;
70010;SDS011;59543;37.950;-122.338;2022-08-11T09:46:23;9.70;;;2.97;;
70010;SDS011;59543;37.950;-122.338;2022-08-11T09:48:52;11.52;;;2.75;;
70010;SDS011;59543;37.950;-122.338;2022-08-11T09:51:21;11.00;;;2.47;;
70010;SDS011;59543;37.950;-122.338;2022-08-11T09:53:48;12.95;;;2.75;;
70010;SDS011;59543;37.950;-122.338;2022-08-11T09:56:15;14.38;;;3.15;;
70010;SDS011;59543;37.950;-122.338;2022-08-11T09:59:05;10.32;;;2.25;;
70010;SDS011;59543;37.950;-122.338;2022-08-11T10:01:46;8.93;;;2.33;;
70010;SDS011;59543;37.950;-122.338;2022-08-11T10:04:21;16.77;;;2.88;;
70010;SDS011;59543;37.950;-122.338;2022-08-11T10:06:55;9.93;;;2.83;;
70010;SDS011;59543;37.950;-122.338;2022-08-11T10:09:35;14.77;;;3.00;;
70010;SDS011;59543;37.950;-122.338;2022-08-11T10:12:10;11.52;;;3.05;;
70010;SDS011;59543;37.950;-122.338;2022-08-11T10:14:45;11.98;;;3.15;;
70010;SDS011;59543;37.950;-122.338;2022-08-11T10:17:35;11.82;;;2.90;;
70010;SDS011;59543;37.950;-122.338;2022-08-11T10:20:26;11.88;;;2.85;;
70010;SDS011;59543;37.950;-122.338;2022-08-11T10:22:54;12.38;;;2.63;;
70010;SDS011;59543;37.950;-122.338;2022-08-11T10:25:40;12.05;;;2.92;;
70010;SDS011;59543;37.950;-122.338;2022-08-11T10:28:26;13.32;;;2.92;;
70010;SDS011;59543;37.950;-122.338;2022-08-11T10:30:53;12.90;;;2.88;;
70010;SDS011;59543;37.950;-122.338;2022-08-11T10:33:39;17.90;;;2.90;;
70010;SDS011;59543;37.950;-122.338;2022-08-11T10:36:31;13.98;;;3.28;;
70010;SDS011;59543;37.950;-122.338;2022-08-11T10:38:58;8.57;;;2.60;;
70010;SDS011;59543;37.950;-122.338;2022-08-11T10:41:26;8.60;;;2.50;;
70010;SDS011;59543;37.950;-122.338;2022-08-11T10:44:12;12.27;;;2.72;;
70010;SDS011;59543;37.950;-122.338;2022-08-11T10:46:39;13.48;;;2.92;;
70010;SDS011;59543;37.950;-122.338;2022-08-11T10:49:24;11.43;;;2.47;;
70010;SDS011;59543;37.950;-122.338;2022-08-11T10:51:52;15.25;;;3.25;;
70010;SDS011;59543;37.950;-122.338;2022-08-11T10:54:39;17.80;;;3.45;;
70010;SDS011;59543;37.950;-122.338;2022-08-11T10:57:25;19.97;;;3.60;;
70010;SDS011;59543;37.950;-122.338;2022-08-11T11:00:12;13.93;;;3.35;;
70010;SDS011;59543;37.950;-122.338;2022-08-11T11:02:40;15.60;;;3.50;;
70010;SDS011;59543;37.950;-122.338;2022-08-11T11:05:28;14.93;;;3.42;;
70010;SDS011;59543;37.950;-122.338;2022-08-11T11:10:59;11.68;;;3.05;;
70010;SDS011;59543;37.950;-122.338;2022-08-11T11:13:27;11.13;;;2.97;;
70010;SDS011;59543;37.950;-122.338;2022-08-11T11:16:12;14.65;;;3.10;;
70010;SDS011;59543;37.950;-122.338;2022-08-11T11:18:57;13.70;;;3.03;;
70010;SDS011;59543;37.950;-122.338;2022-08-11T11:21:28;15.43;;;3.40;;
70010;SDS011;59543;37.950;-122.338;2022-08-11T11:29:09;11.68;;;3.33;;
70010;SDS011;59543;37.950;-122.338;2022-08-11T11:37:16;13.45;;;3.30;;
70010;SDS011;59543;37.950;-122.338;2022-08-11T11:39:43;13.98;;;2.72;;
70010;SDS011;59543;37.950;-122.338;2022-08-11T11:42:10;13.32;;;3.78;;
70010;SDS011;59543;37.950;-122.338;2022-08-11T11:44:38;14.30;;;3.45;;
70010;SDS011;59543;37.950;-122.338;2022-08-11T11:47:07;10.48;;;3.08;;
70010;SDS011;59543;37.950;-122.338;2022-08-11T11:49:36;11.30;;;2.60;;
70010;SDS011;59543;37.950;-122.338;2022-08-11T11:52:08;14.10;;;3.30;;
70010;SDS011;59543;37.950;-122.338;2022-08-11T11:54:43;13.07;;;3.40;;
70010;SDS011;59543;37.950;-122.338;2022-08-11T11:57:15;14.75;;;3.00;;
70010;SDS011;59543;37.950;-122.338;2022-08-11T12:00:03;10.73;;;2.72;;
70010;SDS011;59543;37.950;-122.338;2022-08-11T12:02:49;12.25;;;3.10;;
70010;SDS011;59543;37.950;-122.338;2022-08-11T12:05:17;12.95;;;3.17;;
70010;SDS011;59543;37.950;-122.338;2022-08-11T12:07:44;17.83;;;3.72;;
70010;SDS011;59543;37.950;-122.338;2022-08-11T12:10:29;11.63;;;3.42;;
70010;SDS011;59543;37.950;-122.338;2022-08-11T12:13:00;10.68;;;3.00;;
70010;SDS011;59543;37.950;-122.338;2022-08-11T12:15:46;12.55;;;2.92;;
70010;SDS011;59543;37.950;-122.338;2022-08-11T12:18:13;13.07;;;3.17;;
70010;SDS011;59543;37.950;-122.338;2022-08-11T12:20:41;11.63;;;3.20;;
70010;SDS011;59543;37.950;-122.338;2022-08-11T12:23:10;14.63;;;3.42;;
70010;SDS011;59543;37.950;-122.338;2022-08-11T12:25:56;16.08;;;3.50;;
70010;SDS011;59543;37.950;-122.338;2022-08-11T12:28:42;16.55;;;3.45;;
70010;SDS011;59543;37.950;-122.338;2022-08-11T12:31:10;14.10;;;3.58;;
70010;SDS011;59543;37.950;-122.338;2022-08-11T12:33:37;17.80;;;3.67;;
70010;SDS011;59543;37.950;-122.338;2022-08-11T12:36:09;17.40;;;3.53;;
70010;SDS011;59543;37.950;-122.338;2022-08-11T12:38:39;16.73;;;3.53;;
70010;SDS011;59543;37.950;-122.338;2022-08-11T12:41:08;12.23;;;3.30;;
70010;SDS011;59543;37.950;-122.338;2022-08-11T12:43:53;18.77;;;3.25;;
70010;SDS011;59543;37.950;-122.338;2022-08-11T12:46:41;25.35;;;3.85;;
70010;SDS011;59543;37.950;-122.338;2022-08-11T12:49:14;14.60;;;3.80;;
70010;SDS011;59543;37.950;-122.338;2022-08-11T12:52:04;12.48;;;3.50;;
70010;SDS011;59543;37.950;-122.338;2022-08-11T13:00:21;15.85;;;3.85;;
70010;SDS011;59543;37.950;-122.338;2022-08-11T13:03:08;15.02;;;3.38;;
70010;SDS011;59543;37.950;-122.338;2022-08-11T13:05:55;15.13;;;3.67;;
70010;SDS011;59543;37.950;-122.338;2022-08-11T13:08:24;15.25;;;3.42;;
70010;SDS011;59543;37.950;-122.338;2022-08-11T13:10:54;12.50;;;3.63;;
70010;SDS011;59543;37.950;-122.338;2022-08-11T13:13:41;13.77;;;3.35;;
70010;SDS011;59543;37.950;-122.338;2022-08-11T13:16:09;14.07;;;3.17;;
70010;SDS011;59543;37.950;-122.338;2022-08-11T13:18:36;15.23;;;3.40;;
70010;SDS011;59543;37.950;-122.338;2022-08-11T13:21:06;13.60;;;3.10;;
70010;SDS011;59543;37.950;-122.338;2022-08-11T13:23:38;14.85;;;3.13;;
70010;SDS011;59543;37.950;-122.338;2022-08-11T13:26:06;15.52;;;2.88;;
70010;SDS011;59543;37.950;-122.338;2022-08-11T13:28:34;12.68;;;2.95;;
70010;SDS011;59543;37.950;-122.338;2022-08-11T13:31:02;12.38;;;2.85;;
70010;SDS011;59543;37.950;-122.338;2022-08-11T13:33:40;15.70;;;2.97;;
70010;SDS011;59543;37.950;-122.338;2022-08-11T13:36:14;11.07;;;3.00;;
70010;SDS011;59543;37.950;-122.338;2022-08-11T13:38:44;16.33;;;3.38;;
70010;SDS011;59543;37.950;-122.338;2022-08-11T13:41:12;10.27;;;3.03;;
70010;SDS011;59543;37.950;-122.338;2022-08-11T13:43:57;9.82;;;2.95;;
70010;SDS011;59543;37.950;-122.338;2022-08-11T13:46:24;23.45;;;3.70;;
70010;SDS011;59543;37.950;-122.338;2022-08-11T13:48:53;7.88;;;2.50;;
70010;SDS011;59543;37.950;-122.338;2022-08-11T13:51:22;15.93;;;3.10;;
70010;SDS011;59543;37.950;-122.338;2022-08-11T13:54:05;9.90;;;2.70;;
70010;SDS011;59543;37.950;-122.338;2022-08-11T13:56:37;9.88;;;2.60;;
70010;SDS011;59543;37.950;-122.338;2022-08-11T13:59:07;14.27;;;2.42;;
70010;SDS011;59543;37.950;-122.338;2022-08-11T14:01:38;12.25;;;2.42;;
70010;SDS011;59543;37.950;-122.338;2022-08-11T14:04:13;17.70;;;2.80;;
70010;SDS011;59543;37.950;-122.338;2022-08-11T14:06:50;13.73;;;3.20;;
70010;SDS011;59543;37.950;-122.338;2022-08-11T14:09:20;9.43;;;2.50;;
70010;SDS011;59543;37.950;-122.338;2022-08-11T14:11:51;8.57;;;2.10;;
70010;SDS011;59543;37.950;-122.338;2022-08-11T14:14:39;10.45;;;2.35;;
70010;SDS011;59543;37.950;-122.338;2022-08-11T14:17:08;11.43;;;2.40;;
70010;SDS011;59543;37.950;-122.338;2022-08-11T14:19:37;9.80;;;2.30;;
70010;SDS011;59543;37.950;-122.338;2022-08-11T14:22:05;9.60;;;2.20;;
70010;SDS011;59543;37.950;-122.338;2022-08-11T14:24:36;10.85;;;2.50;;
70010;SDS011;59543;37.950;-122.338;2022-08-11T14:27:10;9.40;;;2.33;;
70010;SDS011;59543;37.950;-122.338;2022-08-11T14:29:37;12.40;;;2.92;;
70010;SDS011;59543;37.950;-122.338;2022-08-11T14:32:06;8.27;;;2.85;;
70010;SDS011;59543;37.950;-122.338;2022-08-11T14:34:35;12.07;;;3.58;;
70010;SDS011;59543;37.950;-122.338;2022-08-11T14:37:28;9.85;;;2.50;;
70010;SDS011;59543;37.950;-122.338;2022-08-11T14:39:57;8.38;;;2.85;;
70010;SDS011;59543;37.950;-122.338;2022-08-11T14:42:45;10.27;;;2.17;;
70010;SDS011;59543;37.950;-122.338;2022-08-11T14:45:30;11.73;;;2.80;;
70010;SDS011;59543;37.950;-122.338;2022-08-11T14:48:14;11.88;;;2.80;;
70010;SDS011;59543;37.950;-122.338;2022-08-11T14:50:41;10.13;;;2.33;;
70010;SDS011;59543;37.950;-122.338;2022-08-11T14:53:10;11.35;;;2.65;;
70010;SDS011;59543;37.950;-122.338;2022-08-11T14:55:40;10.13;;;2.30;;
70010;SDS011;59543;37.950;-122.338;2022-08-11T15:00:55;11.07;;;2.70;;
70010;SDS011;59543;37.950;-122.338;2022-08-11T15:03:23;10.27;;;2.75;;
70010;SDS011;59543;37.950;-122.338;2022-08-11T15:05:55;11.70;;;2.88;;
70010;SDS011;59543;37.950;-122.338;2022-08-11T15:08:25;9.20;;;2.33;;
70010;SDS011;59543;37.950;-122.338;2022-08-11T15:11:16;7.88;;;2.60;;
70010;SDS011;59543;37.950;-122.338;2022-08-11T15:14:04;14.07;;;2.90;;
70010;SDS011;59543;37.950;-122.338;2022-08-11T15:16:32;13.18;;;2.67;;
70010;SDS011;59543;37.950;-122.338;2022-08-11T15:19:19;21.00;;;2.83;;
70010;SDS011;59543;37.950;-122.338;2022-08-11T15:21:46;14.65;;;2.78;;
70010;SDS011;59543;37.950;-122.338;2022-08-11T15:24:32;9.85;;;2.50;;
70010;SDS011;59543;37.950;-122.338;2022-08-11T15:27:00;11.10;;;2.33;;
70010;SDS011;59543;37.950;-122.338;2022-08-11T15:29:50;12.32;;;2.83;;
70010;SDS011;59543;37.950;-122.338;2022-08-11T15:32:37;16.70;;;2.72;;
70010;SDS011;59543;37.950;-122.338;2022-08-11T15:35:24;9.32;;;2.25;;
70010;SDS011;59543;37.950;-122.338;2022-08-11T15:38:10;12.88;;;2.50;;
70010;SDS011;59543;37.950;-122.338;2022-08-11T15:40:38;10.20;;;2.53;;
70010;SDS011;59543;37.950;-122.338;2022-08-11T15:48:57;8.55;;;1.98;;
70010;SDS011;59543;37.950;-122.338;2022-08-11T15:51:33;11.77;;;2.20;;
70010;SDS011;59543;37.950;-122.338;2022-08-11T15:54:09;10.52;;;2.40;;
70010;SDS011;59543;37.950;-122.338;2022-08-11T15:56:40;8.23;;;2.20;;
70010;SDS011;59543;37.950;-122.338;2022-08-11T15:59:10;10.07;;;2.15;;
70010;SDS011;59543;37.950;-122.338;2022-08-11T16:01:56;7.97;;;1.85;;
70010;SDS011;59543;37.950;-122.338;2022-08-11T16:04:43;10.88;;;2.30;;
70010;SDS011;59543;37.950;-122.338;2022-08-11T16:07:12;10.40;;;2.03;;
70010;SDS011;59543;37.950;-122.338;2022-08-11T16:09:41;6.20;;;2.10;;
70010;SDS011;59543;37.950;-122.338;2022-08-11T16:12:36;8.68;;;2.00;;
70010;SDS011;59543;37.950;-122.338;2022-08-11T16:15:26;10.27;;;2.22;;
70010;SDS011;59543;37.950;-122.338;2022-08-11T16:18:11;10.90;;;2.47;;
70010;SDS011;59543;37.950;-122.338;2022-08-11T16:20:41;7.72;;;1.80;;
70010;SDS011;59543;37.950;-122.338;2022-08-11T16:23:09;8.80;;;2.00;;
70010;SDS011;59543;37.950;-122.338;2022-08-11T16:25:39;8.40;;;2.10;;
70010;SDS011;59543;37.950;-122.338;2022-08-11T16:28:07;6.50;;;2.10;;
70010;SDS011;59543;37.950;-122.338;2022-08-11T16:30:38;9.32;;;2.15;;
70010;SDS011;59543;37.950;-122.338;2022-08-11T16:33:07;13.25;;;2.20;;
70010;SDS011;59543;37.950;-122.338;2022-08-11T16:35:36;9.43;;;2.42;;
70010;SDS011;59543;37.950;-122.338;2022-08-11T16:38:25;8.65;;;2.17;;
70010;SDS011;59543;37.950;-122.338;2022-08-11T16:43:41;5.95;;;1.83;;
70010;SDS011;59543;37.950;-122.338;2022-08-11T16:46:28;8.52;;;2.25;;
70010;SDS011;59543;37.950;-122.338;2022-08-11T16:49:05;6.40;;;1.73;;
70010;SDS011;59543;37.950;-122.338;2022-08-11T16:51:36;5.80;;;1.88;;
70010;SDS011;59543;37.950;-122.338;2022-08-11T16:54:03;13.23;;;2.00;;
70010;SDS011;59543;37.950;-122.338;2022-08-11T16:59:07;11.15;;;2.35;;
70010;SDS011;59543;37.950;-122.338;2022-08-11T17:01:41;7.40;;;2.22;;
70010;SDS011;59543;37.950;-122.338;2022-08-11T17:07:29;15.20;;;2.00;;
70010;SDS011;59543;37.950;-122.338;2022-08-11T17:10:17;10.10;;;2.35;;
70010;SDS011;59543;37.950;-122.338;2022-08-11T17:13:19;10.88;;;1.98;;
70010;SDS011;59543;37.950;-122.338;2022-08-11T17:16:13;7.75;;;1.90;;
70010;SDS011;59543;37.950;-122.338;2022-08-11T17:21:47;9.05;;;2.03;;
70010;SDS011;59543;37.950;-122.338;2022-08-11T17:24:34;6.80;;;1.70;;
70010;SDS011;59543;37.950;-122.338;2022-08-11T17:27:04;6.38;;;1.85;;
70010;SDS011;59543;37.950;-122.338;2022-08-11T17:32:14;10.80;;;2.00;;
70010;SDS011;59543;37.950;-122.338;2022-08-11T17:35:11;9.07;;;2.05;;
70010;SDS011;59543;37.950;-122.338;2022-08-11T17:37:59;8.45;;;2.70;;
70010;SDS011;59543;37.950;-122.338;2022-08-11T17:40:46;15.45;;;2.75;;
70010;SDS011;59543;37.950;-122.338;2022-08-11T17:43:32;10.45;;;2.53;;
70010;SDS011;59543;37.950;-122.338;2022-08-11T17:46:17;10.32;;;2.35;;
70010;SDS011;59543;37.950;-122.338;2022-08-11T17:49:02;9.75;;;2.30;;
70010;SDS011;59543;37.950;-122.338;2022-08-11T17:51:35;9.43;;;2.15;;
70010;SDS011;59543;37.950;-122.338;2022-08-11T17:54:22;12.98;;;2.78;;
70010;SDS011;59543;37.950;-122.338;2022-08-11T17:57:08;11.70;;;2.83;;
70010;SDS011;59543;37.950;-122.338;2022-08-11T18:02:29;11.85;;;2.15;;
70010;SDS011;59543;37.950;-122.338;2022-08-11T18:05:14;15.43;;;3.50;;
70010;SDS011;59543;37.950;-122.338;2022-08-11T18:07:44;11.77;;;2.38;;
70010;SDS011;59543;37.950;-122.338;2022-08-11T18:10:30;12.90;;;2.72;;
70010;SDS011;59543;37.950;-122.338;2022-08-11T18:16:07;17.30;;;3.45;;
70010;SDS011;59543;37.950;-122.338;2022-08-11T18:18:54;13.73;;;2.55;;
70010;SDS011;59543;37.950;-122.338;2022-08-11T18:21:43;8.45;;;2.10;;
70010;SDS011;59543;37.950;-122.338;2022-08-11T18:24:30;11.82;;;2.45;;
70010;SDS011;59543;37.950;-122.338;2022-08-11T18:27:20;8.77;;;2.65;;
70010;SDS011;59543;37.950;-122.338;2022-08-11T18:30:08;11.60;;;2.30;;
70010;SDS011;59543;37.950;-122.338;2022-08-11T18:32:53;10.52;;;2.30;;
70010;SDS011;59543;37.950;-122.338;2022-08-11T18:35:45;9.95;;;2.45;;
70010;SDS011;59543;37.950;-122.338;2022-08-11T18:38:35;12.02;;;2.15;;
70010;SDS011;59543;37.950;-122.338;2022-08-11T18:41:28;9.23;;;2.58;;
70010;SDS011;59543;37.950;-122.338;2022-08-11T18:44:14;9.55;;;2.25;;
70010;SDS011;59543;37.950;-122.338;2022-08-11T18:52:36;8.48;;;2.15;;
70010;SDS011;59543;37.950;-122.338;2022-08-11T18:55:24;8.80;;;2.30;;
70010;SDS011;59543;37.950;-122.338;2022-08-11T18:58:09;8.50;;;2.25;;
70010;SDS011;59543;37.950;-122.338;2022-08-11T19:00:57;10.02;;;2.33;;
70010;SDS011;59543;37.950;-122.338;2022-08-11T19:03:43;10.82;;;2.30;;
70010;SDS011;59543;37.950;-122.338;2022-08-11T19:06:30;11.52;;;2.33;;
70010;SDS011;59543;37.950;-122.338;2022-08-11T19:12:01;10.63;;;2.20;;
70010;SDS011;59543;37.950;-122.338;2022-08-11T19:14:49;7.00;;;1.80;;
70010;SDS011;59543;37.950;-122.338;2022-08-11T19:20:22;8.23;;;2.15;;
70010;SDS011;59543;37.950;-122.338;2022-08-11T19:23:10;5.18;;;1.83;;
70010;SDS011;59543;37.950;-122.338;2022-08-11T19:25:57;10.32;;;2.30;;
70010;SDS011;59543;37.950;-122.338;2022-08-11T19:28:45;7.90;;;2.20;;
70010;SDS011;59543;37.950;-122.338;2022-08-11T19:31:32;10.18;;;2.47;;
70010;SDS011;59543;37.950;-122.338;2022-08-11T19:34:20;8.90;;;2.10;;
70010;SDS011;59543;37.950;-122.338;2022-08-11T19:37:06;6.75;;;1.98;;
70010;SDS011;59543;37.950;-122.338;2022-08-11T19:39:53;6.88;;;2.35;;
70010;SDS011;59543;37.950;-122.338;2022-08-11T19:42:43;8.45;;;1.70;;
70010;SDS011;59543;37.950;-122.338;2022-08-11T19:45:29;6.60;;;2.25;;
70010;SDS011;59543;37.950;-122.338;2022-08-11T19:48:16;8.30;;;2.08;;
70010;SDS011;59543;37.950;-122.338;2022-08-11T19:53:46;9.05;;;2.20;;
70010;SDS011;59543;37.950;-122.338;2022-08-11T19:56:32;8.90;;;2.10;;
70010;SDS011;59543;37.950;-122.338;2022-08-11T20:02:02;8.90;;;2.20;;
70010;SDS011;59543;37.950;-122.338;2022-08-11T20:04:47;10.60;;;2.45;;
70010;SDS011;59543;37.950;-122.338;2022-08-11T20:07:32;8.75;;;2.00;;
70010;SDS011;59543;37.950;-122.338;2022-08-11T20:10:19;7.10;;;2.25;;
70010;SDS011;59543;37.950;-122.338;2022-08-11T20:13:06;8.95;;;2.17;;